sensor_id;sensor_type;location;lat;lon;timestamp;P1;durP1;ratioP1;P2;durP2;ratioP2
38089;SDS011;23904;52.322;10.232;2022-10-01T00:02:01;5.07;;;2.88;;
38089;SDS011;23904;52.322;10.232;2022-10-01T00:04:26;4.78;;;2.70;;
38089;SDS011;23904;52.322;10.232;2022-10-01T00:06:52;3.40;;;2.35;;
38089;SDS011;23904;52.322;10.232;2022-10-01T00:09:18;5.57;;;2.50;;
38089;SDS011;23904;52.322;10.232;2022-10-01T00:11:44;6.43;;;3.10;;
38089;SDS011;23904;52.322;10.232;2022-10-01T00:14:10;8.15;;;2.78;;
38089;SDS011;23904;52.322;10.232;2022-10-01T00:16:35;5.32;;;2.70;;
38089;SDS011;23904;52.322;10.232;2022-10-01T00:19:01;8.98;;;3.38;;
38089;SDS011;23904;52.322;10.232;2022-10-01T00:21:29;7.03;;;2.95;;
38089;SDS011;23904;52.322;10.232;2022-10-01T00:23:56;7.28;;;2.95;;
38089;SDS011;23904;52.322;10.232;2022-10-01T00:26:29;7.90;;;3.22;;
38089;SDS011;23904;52.322;10.232;2022-10-01T00:28:59;7.85;;;3.38;;
38089;SDS011;23904;52.322;10.232;2022-10-01T00:31:28;4.78;;;2.83;;
38089;SDS011;23904;52.322;10.232;2022-10-01T00:33:56;5.60;;;2.60;;
38089;SDS011;23904;52.322;10.232;2022-10-01T00:36:24;11.07;;;3.13;;
38089;SDS011;23904;52.322;10.232;2022-10-01T00:38:51;5.68;;;2.63;;
38089;SDS011;23904;52.322;10.232;2022-10-01T00:41:17;5.07;;;2.78;;
38089;SDS011;23904;52.322;10.232;2022-10-01T00:43:44;7.40;;;2.95;;
38089;SDS011;23904;52.322;10.232;2022-10-01T00:46:56;6.07;;;3.08;;
38089;SDS011;23904;52.322;10.232;2022-10-01T00:49:13;6.18;;;2.80;;
38089;SDS011;23904;52.322;10.232;2022-10-01T00:51:45;4.63;;;2.50;;
38089;SDS011;23904;52.322;10.232;2022-10-01T00:54:20;5.35;;;3.15;;
38089;SDS011;23904;52.322;10.232;2022-10-01T00:56:51;4.55;;;3.08;;
38089;SDS011;23904;52.322;10.232;2022-10-01T00:59:21;5.28;;;2.97;;
38089;SDS011;23904;52.322;10.232;2022-10-01T01:01:47;5.95;;;3.00;;
38089;SDS011;23904;52.322;10.232;2022-10-01T01:04:13;6.43;;;3.15;;
38089;SDS011;23904;52.322;10.232;2022-10-01T01:06:45;6.10;;;2.78;;
38089;SDS011;23904;52.322;10.232;2022-10-01T01:09:20;5.32;;;3.20;;
38089;SDS011;23904;52.322;10.232;2022-10-01T01:11:58;6.68;;;3.08;;
38089;SDS011;23904;52.322;10.232;2022-10-01T01:14:52;4.40;;;2.67;;
38089;SDS011;23904;52.322;10.232;2022-10-01T01:28:51;6.35;;;2.85;;
38089;SDS011;23904;52.322;10.232;2022-10-01T01:31:31;4.53;;;2.78;;
38089;SDS011;23904;52.322;10.232;2022-10-01T01:34:03;5.88;;;2.92;;
38089;SDS011;23904;52.322;10.232;2022-10-01T01:36:36;5.80;;;2.75;;
38089;SDS011;23904;52.322;10.232;2022-10-01T01:39:08;8.82;;;3.08;;
38089;SDS011;23904;52.322;10.232;2022-10-01T01:41:39;5.00;;;3.25;;
38089;SDS011;23904;52.322;10.232;2022-10-01T01:44:13;5.35;;;2.88;;
38089;SDS011;23904;52.322;10.232;2022-10-01T01:46:54;4.93;;;2.97;;
38089;SDS011;23904;52.322;10.232;2022-10-01T01:49:21;5.18;;;2.58;;
38089;SDS011;23904;52.322;10.232;2022-10-01T01:51:58;4.47;;;2.97;;
38089;SDS011;23904;52.322;10.232;2022-10-01T01:54:33;7.78;;;2.97;;
38089;SDS011;23904;52.322;10.232;2022-10-01T01:57:00;7.30;;;3.38;;
38089;SDS011;23904;52.322;10.232;2022-10-01T01:59:28;6.68;;;2.95;;
38089;SDS011;23904;52.322;10.232;2022-10-01T02:01:57;6.28;;;2.97;;
38089;SDS011;23904;52.322;10.232;2022-10-01T02:04:35;3.78;;;2.50;;
38089;SDS011;23904;52.322;10.232;2022-10-01T02:15:52;6.47;;;3.00;;
38089;SDS011;23904;52.322;10.232;2022-10-01T02:18:25;6.05;;;3.33;;
38089;SDS011;23904;52.322;10.232;2022-10-01T02:23:44;4.90;;;2.47;;
38089;SDS011;23904;52.322;10.232;2022-10-01T02:26:22;4.88;;;3.10;;
38089;SDS011;23904;52.322;10.232;2022-10-01T02:28:52;6.70;;;3.40;;
38089;SDS011;23904;52.322;10.232;2022-10-01T02:31:23;6.05;;;3.10;;
38089;SDS011;23904;52.322;10.232;2022-10-01T02:33:50;5.90;;;3.13;;
38089;SDS011;23904;52.322;10.232;2022-10-01T02:36:18;4.60;;;2.92;;
38089;SDS011;23904;52.322;10.232;2022-10-01T02:38:45;8.55;;;3.40;;
38089;SDS011;23904;52.322;10.232;2022-10-01T02:41:15;5.25;;;3.30;;
38089;SDS011;23904;52.322;10.232;2022-10-01T02:43:50;4.70;;;2.60;;
38089;SDS011;23904;52.322;10.232;2022-10-01T02:46:28;6.00;;;3.05;;
38089;SDS011;23904;52.322;10.232;2022-10-01T02:49:02;5.40;;;2.80;;
38089;SDS011;23904;52.322;10.232;2022-10-01T02:54:29;5.13;;;2.85;;
38089;SDS011;23904;52.322;10.232;2022-10-01T02:57:12;5.13;;;3.05;;
38089;SDS011;23904;52.322;10.232;2022-10-01T02:59:56;4.97;;;2.80;;
38089;SDS011;23904;52.322;10.232;2022-10-01T03:02:29;8.95;;;3.60;;
38089;SDS011;23904;52.322;10.232;2022-10-01T03:04:57;4.57;;;2.90;;
38089;SDS011;23904;52.322;10.232;2022-10-01T03:07:24;4.10;;;2.53;;
38089;SDS011;23904;52.322;10.232;2022-10-01T03:09:52;8.15;;;3.47;;
38089;SDS011;23904;52.322;10.232;2022-10-01T03:12:18;5.05;;;3.17;;
38089;SDS011;23904;52.322;10.232;2022-10-01T03:14:47;6.22;;;2.97;;
38089;SDS011;23904;52.322;10.232;2022-10-01T03:17:14;5.68;;;3.00;;
38089;SDS011;23904;52.322;10.232;2022-10-01T03:19:40;4.82;;;2.88;;
38089;SDS011;23904;52.322;10.232;2022-10-01T03:22:07;5.88;;;2.75;;
38089;SDS011;23904;52.322;10.232;2022-10-01T03:24:38;12.10;;;3.10;;
38089;SDS011;23904;52.322;10.232;2022-10-01T03:27:04;10.65;;;3.17;;
38089;SDS011;23904;52.322;10.232;2022-10-01T03:29:30;5.95;;;2.80;;
38089;SDS011;23904;52.322;10.232;2022-10-01T03:31:56;6.97;;;2.72;;
38089;SDS011;23904;52.322;10.232;2022-10-01T03:34:22;6.00;;;3.20;;
38089;SDS011;23904;52.322;10.232;2022-10-01T03:36:49;6.07;;;2.92;;
38089;SDS011;23904;52.322;10.232;2022-10-01T03:39:16;5.60;;;2.95;;
38089;SDS011;23904;52.322;10.232;2022-10-01T03:41:43;9.32;;;3.08;;
38089;SDS011;23904;52.322;10.232;2022-10-01T03:44:09;8.68;;;3.13;;
38089;SDS011;23904;52.322;10.232;2022-10-01T03:46:36;7.78;;;3.20;;
38089;SDS011;23904;52.322;10.232;2022-10-01T03:49:01;5.13;;;3.30;;
38089;SDS011;23904;52.322;10.232;2022-10-01T03:51:28;5.85;;;2.60;;
38089;SDS011;23904;52.322;10.232;2022-10-01T03:53:55;5.03;;;2.72;;
38089;SDS011;23904;52.322;10.232;2022-10-01T03:56:21;5.03;;;2.95;;
38089;SDS011;23904;52.322;10.232;2022-10-01T03:58:48;8.13;;;3.13;;
38089;SDS011;23904;52.322;10.232;2022-10-01T04:01:14;7.47;;;2.95;;
38089;SDS011;23904;52.322;10.232;2022-10-01T04:03:41;4.53;;;2.72;;
38089;SDS011;23904;52.322;10.232;2022-10-01T04:06:08;7.47;;;3.40;;
38089;SDS011;23904;52.322;10.232;2022-10-01T04:08:34;7.75;;;3.33;;
38089;SDS011;23904;52.322;10.232;2022-10-01T04:11:01;4.75;;;3.05;;
38089;SDS011;23904;52.322;10.232;2022-10-01T04:13:27;6.45;;;3.30;;
38089;SDS011;23904;52.322;10.232;2022-10-01T04:15:54;7.60;;;3.58;;
38089;SDS011;23904;52.322;10.232;2022-10-01T04:18:20;5.60;;;3.00;;
38089;SDS011;23904;52.322;10.232;2022-10-01T04:20:46;6.28;;;2.88;;
38089;SDS011;23904;52.322;10.232;2022-10-01T04:23:16;7.55;;;2.72;;
38089;SDS011;23904;52.322;10.232;2022-10-01T04:25:41;7.00;;;3.05;;
38089;SDS011;23904;52.322;10.232;2022-10-01T04:28:09;7.57;;;3.00;;
38089;SDS011;23904;52.322;10.232;2022-10-01T04:30:38;8.25;;;2.97;;
38089;SDS011;23904;52.322;10.232;2022-10-01T04:33:06;4.88;;;2.95;;
38089;SDS011;23904;52.322;10.232;2022-10-01T04:35:36;4.70;;;3.00;;
38089;SDS011;23904;52.322;10.232;2022-10-01T04:38:08;6.90;;;2.88;;
38089;SDS011;23904;52.322;10.232;2022-10-01T04:40:38;6.75;;;3.22;;
38089;SDS011;23904;52.322;10.232;2022-10-01T04:43:05;8.20;;;2.58;;
38089;SDS011;23904;52.322;10.232;2022-10-01T04:45:33;4.68;;;2.60;;
38089;SDS011;23904;52.322;10.232;2022-10-01T04:48:00;5.82;;;2.70;;
38089;SDS011;23904;52.322;10.232;2022-10-01T04:50:26;7.22;;;2.72;;
38089;SDS011;23904;52.322;10.232;2022-10-01T04:52:52;7.20;;;2.72;;
38089;SDS011;23904;52.322;10.232;2022-10-01T04:55:19;6.53;;;2.78;;
38089;SDS011;23904;52.322;10.232;2022-10-01T04:57:47;4.82;;;3.03;;
38089;SDS011;23904;52.322;10.232;2022-10-01T05:00:15;9.25;;;2.38;;
38089;SDS011;23904;52.322;10.232;2022-10-01T05:02:45;9.43;;;4.13;;
38089;SDS011;23904;52.322;10.232;2022-10-01T05:05:13;5.10;;;2.50;;
38089;SDS011;23904;52.322;10.232;2022-10-01T05:07:39;13.05;;;2.67;;
38089;SDS011;23904;52.322;10.232;2022-10-01T05:10:13;4.97;;;2.42;;
38089;SDS011;23904;52.322;10.232;2022-10-01T05:12:44;5.65;;;3.28;;
38089;SDS011;23904;52.322;10.232;2022-10-01T05:15:11;5.50;;;2.88;;
38089;SDS011;23904;52.322;10.232;2022-10-01T05:17:40;6.95;;;2.88;;
38089;SDS011;23904;52.322;10.232;2022-10-01T05:20:08;5.57;;;2.80;;
38089;SDS011;23904;52.322;10.232;2022-10-01T05:22:41;6.05;;;3.15;;
38089;SDS011;23904;52.322;10.232;2022-10-01T05:25:09;6.03;;;2.95;;
38089;SDS011;23904;52.322;10.232;2022-10-01T05:27:35;6.28;;;3.38;;
38089;SDS011;23904;52.322;10.232;2022-10-01T05:30:02;6.85;;;2.72;;
38089;SDS011;23904;52.322;10.232;2022-10-01T05:32:29;9.60;;;3.17;;
38089;SDS011;23904;52.322;10.232;2022-10-01T05:34:55;6.60;;;3.42;;
38089;SDS011;23904;52.322;10.232;2022-10-01T05:37:21;5.55;;;3.15;;
38089;SDS011;23904;52.322;10.232;2022-10-01T05:39:48;5.05;;;2.72;;
38089;SDS011;23904;52.322;10.232;2022-10-01T05:42:13;6.47;;;2.78;;
38089;SDS011;23904;52.322;10.232;2022-10-01T05:44:39;8.18;;;3.08;;
38089;SDS011;23904;52.322;10.232;2022-10-01T05:47:10;6.60;;;3.28;;
38089;SDS011;23904;52.322;10.232;2022-10-01T05:49:38;6.95;;;3.35;;
38089;SDS011;23904;52.322;10.232;2022-10-01T05:52:08;7.03;;;3.13;;
38089;SDS011;23904;52.322;10.232;2022-10-01T05:54:35;6.10;;;3.00;;
38089;SDS011;23904;52.322;10.232;2022-10-01T05:57:01;7.22;;;3.33;;
38089;SDS011;23904;52.322;10.232;2022-10-01T05:59:26;7.53;;;3.30;;
38089;SDS011;23904;52.322;10.232;2022-10-01T06:01:52;7.72;;;4.03;;
38089;SDS011;23904;52.322;10.232;2022-10-01T06:04:18;5.82;;;3.60;;
38089;SDS011;23904;52.322;10.232;2022-10-01T06:06:43;6.82;;;3.53;;
38089;SDS011;23904;52.322;10.232;2022-10-01T06:09:10;6.05;;;3.83;;
38089;SDS011;23904;52.322;10.232;2022-10-01T06:11:37;7.88;;;3.72;;
38089;SDS011;23904;52.322;10.232;2022-10-01T06:14:03;6.40;;;3.63;;
38089;SDS011;23904;52.322;10.232;2022-10-01T06:16:30;6.00;;;3.55;;
38089;SDS011;23904;52.322;10.232;2022-10-01T06:18:56;8.07;;;4.47;;
38089;SDS011;23904;52.322;10.232;2022-10-01T06:21:23;6.18;;;3.60;;
38089;SDS011;23904;52.322;10.232;2022-10-01T06:23:50;5.57;;;3.58;;
38089;SDS011;23904;52.322;10.232;2022-10-01T06:26:16;7.47;;;3.70;;
38089;SDS011;23904;52.322;10.232;2022-10-01T06:28:43;6.68;;;3.55;;
38089;SDS011;23904;52.322;10.232;2022-10-01T06:31:08;5.30;;;3.17;;
38089;SDS011;23904;52.322;10.232;2022-10-01T06:33:34;10.60;;;4.10;;
38089;SDS011;23904;52.322;10.232;2022-10-01T06:36:00;8.80;;;3.95;;
38089;SDS011;23904;52.322;10.232;2022-10-01T06:38:28;13.40;;;4.07;;
38089;SDS011;23904;52.322;10.232;2022-10-01T06:40:55;7.55;;;4.00;;
38089;SDS011;23904;52.322;10.232;2022-10-01T06:43:23;7.82;;;3.15;;
38089;SDS011;23904;52.322;10.232;2022-10-01T06:45:52;6.53;;;3.97;;
38089;SDS011;23904;52.322;10.232;2022-10-01T06:48:22;6.47;;;3.33;;
38089;SDS011;23904;52.322;10.232;2022-10-01T06:50:48;7.18;;;3.83;;
38089;SDS011;23904;52.322;10.232;2022-10-01T06:53:16;8.07;;;3.63;;
38089;SDS011;23904;52.322;10.232;2022-10-01T06:55:42;7.45;;;3.20;;
38089;SDS011;23904;52.322;10.232;2022-10-01T06:58:12;6.47;;;3.58;;
38089;SDS011;23904;52.322;10.232;2022-10-01T07:00:56;5.90;;;3.83;;
38089;SDS011;23904;52.322;10.232;2022-10-01T07:03:26;8.38;;;3.55;;
38089;SDS011;23904;52.322;10.232;2022-10-01T07:05:52;5.57;;;3.50;;
38089;SDS011;23904;52.322;10.232;2022-10-01T07:08:18;10.10;;;3.60;;
38089;SDS011;23904;52.322;10.232;2022-10-01T07:10:45;12.45;;;3.40;;
38089;SDS011;23904;52.322;10.232;2022-10-01T07:13:17;5.68;;;3.00;;
38089;SDS011;23904;52.322;10.232;2022-10-01T07:15:44;4.55;;;2.80;;
38089;SDS011;23904;52.322;10.232;2022-10-01T07:18:12;6.70;;;3.13;;
38089;SDS011;23904;52.322;10.232;2022-10-01T07:20:38;9.85;;;3.13;;
38089;SDS011;23904;52.322;10.232;2022-10-01T07:23:05;5.70;;;2.90;;
38089;SDS011;23904;52.322;10.232;2022-10-01T07:25:34;8.88;;;3.28;;
38089;SDS011;23904;52.322;10.232;2022-10-01T07:28:03;6.88;;;3.40;;
38089;SDS011;23904;52.322;10.232;2022-10-01T07:30:31;9.05;;;3.42;;
38089;SDS011;23904;52.322;10.232;2022-10-01T07:32:58;5.85;;;3.13;;
38089;SDS011;23904;52.322;10.232;2022-10-01T07:35:24;8.77;;;3.20;;
38089;SDS011;23904;52.322;10.232;2022-10-01T07:37:50;3.75;;;2.60;;
38089;SDS011;23904;52.322;10.232;2022-10-01T07:40:16;5.13;;;3.72;;
38089;SDS011;23904;52.322;10.232;2022-10-01T07:42:43;4.68;;;2.72;;
38089;SDS011;23904;52.322;10.232;2022-10-01T07:45:20;5.07;;;2.80;;
38089;SDS011;23904;52.322;10.232;2022-10-01T07:47:56;5.28;;;2.80;;
38089;SDS011;23904;52.322;10.232;2022-10-01T07:50:24;4.85;;;2.47;;
38089;SDS011;23904;52.322;10.232;2022-10-01T07:52:54;4.45;;;3.22;;
38089;SDS011;23904;52.322;10.232;2022-10-01T07:55:25;4.53;;;2.90;;
38089;SDS011;23904;52.322;10.232;2022-10-01T07:57:53;4.40;;;2.88;;
38089;SDS011;23904;52.322;10.232;2022-10-01T08:00:22;4.88;;;2.58;;
38089;SDS011;23904;52.322;10.232;2022-10-01T08:02:51;4.32;;;2.33;;
38089;SDS011;23904;52.322;10.232;2022-10-01T08:05:20;3.63;;;2.72;;
38089;SDS011;23904;52.322;10.232;2022-10-01T08:07:48;6.10;;;3.20;;
38089;SDS011;23904;52.322;10.232;2022-10-01T08:10:15;4.85;;;2.45;;
38089;SDS011;23904;52.322;10.232;2022-10-01T08:12:42;5.45;;;2.80;;
38089;SDS011;23904;52.322;10.232;2022-10-01T08:15:10;4.97;;;2.90;;
38089;SDS011;23904;52.322;10.232;2022-10-01T08:17:37;4.25;;;2.33;;
38089;SDS011;23904;52.322;10.232;2022-10-01T08:20:04;4.43;;;2.70;;
38089;SDS011;23904;52.322;10.232;2022-10-01T08:22:31;7.07;;;3.60;;
38089;SDS011;23904;52.322;10.232;2022-10-01T08:24:57;6.30;;;2.90;;
38089;SDS011;23904;52.322;10.232;2022-10-01T08:27:23;8.55;;;2.42;;
38089;SDS011;23904;52.322;10.232;2022-10-01T08:29:50;8.85;;;2.55;;
38089;SDS011;23904;52.322;10.232;2022-10-01T08:32:16;2.65;;;2.00;;
38089;SDS011;23904;52.322;10.232;2022-10-01T08:34:42;3.58;;;2.22;;
38089;SDS011;23904;52.322;10.232;2022-10-01T08:37:08;3.33;;;2.00;;
38089;SDS011;23904;52.322;10.232;2022-10-01T08:39:33;3.60;;;2.13;;
38089;SDS011;23904;52.322;10.232;2022-10-01T08:42:09;3.55;;;2.28;;
38089;SDS011;23904;52.322;10.232;2022-10-01T08:45:05;4.28;;;1.92;;
38089;SDS011;23904;52.322;10.232;2022-10-01T08:47:53;2.60;;;1.60;;
38089;SDS011;23904;52.322;10.232;2022-10-01T08:50:31;2.70;;;1.60;;
38089;SDS011;23904;52.322;10.232;2022-10-01T08:53:32;2.38;;;1.63;;
38089;SDS011;23904;52.322;10.232;2022-10-01T08:56:05;2.92;;;1.83;;
38089;SDS011;23904;52.322;10.232;2022-10-01T08:58:42;3.03;;;1.85;;
38089;SDS011;23904;52.322;10.232;2022-10-01T09:01:11;3.05;;;1.45;;
38089;SDS011;23904;52.322;10.232;2022-10-01T09:03:37;3.30;;;2.03;;
38089;SDS011;23904;52.322;10.232;2022-10-01T09:06:17;2.83;;;1.70;;
38089;SDS011;23904;52.322;10.232;2022-10-01T09:09:07;3.83;;;1.73;;
38089;SDS011;23904;52.322;10.232;2022-10-01T09:12:10;2.95;;;1.52;;
38089;SDS011;23904;52.322;10.232;2022-10-01T09:15:03;2.75;;;1.38;;
38089;SDS011;23904;52.322;10.232;2022-10-01T09:17:52;2.97;;;1.20;;
38089;SDS011;23904;52.322;10.232;2022-10-01T09:20:40;5.00;;;1.70;;
38089;SDS011;23904;52.322;10.232;2022-10-01T09:25:43;3.90;;;1.42;;
38089;SDS011;23904;52.322;10.232;2022-10-01T09:28:15;3.78;;;1.25;;
38089;SDS011;23904;52.322;10.232;2022-10-01T09:33:41;3.63;;;1.38;;
38089;SDS011;23904;52.322;10.232;2022-10-01T09:36:39;3.78;;;1.00;;
38089;SDS011;23904;52.322;10.232;2022-10-01T09:39:24;2.55;;;1.35;;
38089;SDS011;23904;52.322;10.232;2022-10-01T09:42:24;2.60;;;1.52;;
38089;SDS011;23904;52.322;10.232;2022-10-01T09:44:52;3.42;;;1.25;;
38089;SDS011;23904;52.322;10.232;2022-10-01T09:47:19;1.67;;;1.10;;
38089;SDS011;23904;52.322;10.232;2022-10-01T09:49:47;1.52;;;1.10;;
38089;SDS011;23904;52.322;10.232;2022-10-01T09:52:15;3.13;;;1.13;;
38089;SDS011;23904;52.322;10.232;2022-10-01T09:54:55;2.67;;;1.33;;
38089;SDS011;23904;52.322;10.232;2022-10-01T09:57:36;3.88;;;1.50;;
38089;SDS011;23904;52.322;10.232;2022-10-01T10:00:10;1.48;;;1.00;;
38089;SDS011;23904;52.322;10.232;2022-10-01T10:02:44;2.33;;;1.48;;
38089;SDS011;23904;52.322;10.232;2022-10-01T10:05:18;3.30;;;1.20;;
38089;SDS011;23904;52.322;10.232;2022-10-01T10:07:57;2.55;;;1.40;;
38089;SDS011;23904;52.322;10.232;2022-10-01T10:10:33;3.50;;;1.27;;
38089;SDS011;23904;52.322;10.232;2022-10-01T10:15:35;5.13;;;1.20;;
38089;SDS011;23904;52.322;10.232;2022-10-01T10:18:07;3.10;;;1.48;;
38089;SDS011;23904;52.322;10.232;2022-10-01T10:20:40;1.90;;;1.20;;
38089;SDS011;23904;52.322;10.232;2022-10-01T10:23:16;2.03;;;0.90;;
38089;SDS011;23904;52.322;10.232;2022-10-01T10:25:57;3.15;;;0.85;;
38089;SDS011;23904;52.322;10.232;2022-10-01T10:28:27;2.35;;;1.00;;
38089;SDS011;23904;52.322;10.232;2022-10-01T10:31:06;1.48;;;0.80;;
38089;SDS011;23904;52.322;10.232;2022-10-01T10:33:43;2.60;;;0.90;;
38089;SDS011;23904;52.322;10.232;2022-10-01T10:36:31;2.17;;;1.00;;
38089;SDS011;23904;52.322;10.232;2022-10-01T10:39:00;1.92;;;1.00;;
38089;SDS011;23904;52.322;10.232;2022-10-01T10:41:29;1.52;;;1.08;;
38089;SDS011;23904;52.322;10.232;2022-10-01T10:43:56;4.82;;;1.02;;
38089;SDS011;23904;52.322;10.232;2022-10-01T10:46:26;1.90;;;0.70;;
38089;SDS011;23904;52.322;10.232;2022-10-01T10:51:53;1.17;;;0.60;;
38089;SDS011;23904;52.322;10.232;2022-10-01T10:54:31;1.98;;;0.80;;
38089;SDS011;23904;52.322;10.232;2022-10-01T10:59:59;1.58;;;0.60;;
38089;SDS011;23904;52.322;10.232;2022-10-01T11:02:40;1.77;;;0.85;;
38089;SDS011;23904;52.322;10.232;2022-10-01T11:05:18;1.35;;;0.70;;
38089;SDS011;23904;52.322;10.232;2022-10-01T11:07:46;7.78;;;1.10;;
38089;SDS011;23904;52.322;10.232;2022-10-01T11:10:24;1.92;;;0.90;;
38089;SDS011;23904;52.322;10.232;2022-10-01T11:13:13;0.80;;;0.60;;
38089;SDS011;23904;52.322;10.232;2022-10-01T11:18:47;1.45;;;0.80;;
38089;SDS011;23904;52.322;10.232;2022-10-01T11:27:23;2.60;;;1.50;;
38089;SDS011;23904;52.322;10.232;2022-10-01T11:35:58;4.85;;;1.58;;
38089;SDS011;23904;52.322;10.232;2022-10-01T11:38:41;2.08;;;1.25;;
38089;SDS011;23904;52.322;10.232;2022-10-01T11:47:12;4.75;;;1.60;;
38089;SDS011;23904;52.322;10.232;2022-10-01T11:58:20;3.72;;;1.88;;
38089;SDS011;23904;52.322;10.232;2022-10-01T12:01:31;3.95;;;1.30;;
38089;SDS011;23904;52.322;10.232;2022-10-01T12:04:36;3.92;;;1.20;;
38089;SDS011;23904;52.322;10.232;2022-10-01T12:07:11;5.72;;;1.33;;
38089;SDS011;23904;52.322;10.232;2022-10-01T12:10:27;3.83;;;1.08;;
38089;SDS011;23904;52.322;10.232;2022-10-01T12:18:56;2.85;;;1.27;;
38089;SDS011;23904;52.322;10.232;2022-10-01T12:21:38;3.97;;;1.25;;
38089;SDS011;23904;52.322;10.232;2022-10-01T12:24:12;5.32;;;2.35;;
38089;SDS011;23904;52.322;10.232;2022-10-01T12:29:28;5.28;;;1.90;;
38089;SDS011;23904;52.322;10.232;2022-10-01T12:32:29;2.95;;;1.60;;
38089;SDS011;23904;52.322;10.232;2022-10-01T12:40:57;13.32;;;6.03;;
38089;SDS011;23904;52.322;10.232;2022-10-01T12:43:46;5.32;;;3.33;;
38089;SDS011;23904;52.322;10.232;2022-10-01T12:49:28;5.18;;;2.72;;
38089;SDS011;23904;52.322;10.232;2022-10-01T13:00:50;4.32;;;2.40;;
38089;SDS011;23904;52.322;10.232;2022-10-01T13:04:27;6.70;;;3.20;;
38089;SDS011;23904;52.322;10.232;2022-10-01T13:10:20;4.45;;;2.45;;
38089;SDS011;23904;52.322;10.232;2022-10-01T13:13:20;5.25;;;2.75;;
38089;SDS011;23904;52.322;10.232;2022-10-01T13:16:02;6.93;;;2.72;;
38089;SDS011;23904;52.322;10.232;2022-10-01T13:24:42;5.90;;;2.08;;
38089;SDS011;23904;52.322;10.232;2022-10-01T13:30:13;5.40;;;2.10;;
38089;SDS011;23904;52.322;10.232;2022-10-01T13:32:53;5.55;;;2.35;;
38089;SDS011;23904;52.322;10.232;2022-10-01T13:37:49;9.10;;;2.67;;
38089;SDS011;23904;52.322;10.232;2022-10-01T13:40:29;2.97;;;2.40;;
38089;SDS011;23904;52.322;10.232;2022-10-01T13:43:18;9.75;;;2.70;;
38089;SDS011;23904;52.322;10.232;2022-10-01T13:45:46;4.97;;;2.42;;
38089;SDS011;23904;52.322;10.232;2022-10-01T13:48:16;9.10;;;2.80;;
38089;SDS011;23904;52.322;10.232;2022-10-01T13:50:56;5.47;;;2.20;;
38089;SDS011;23904;52.322;10.232;2022-10-01T13:53:55;3.67;;;2.20;;
38089;SDS011;23904;52.322;10.232;2022-10-01T13:56:34;6.20;;;2.25;;
38089;SDS011;23904;52.322;10.232;2022-10-01T13:59:18;8.95;;;2.70;;
38089;SDS011;23904;52.322;10.232;2022-10-01T14:01:57;7.60;;;2.50;;
38089;SDS011;23904;52.322;10.232;2022-10-01T14:07:20;5.15;;;2.75;;
38089;SDS011;23904;52.322;10.232;2022-10-01T14:09:53;7.07;;;3.17;;
38089;SDS011;23904;52.322;10.232;2022-10-01T14:12:29;4.75;;;2.58;;
38089;SDS011;23904;52.322;10.232;2022-10-01T14:15:23;7.68;;;2.78;;
38089;SDS011;23904;52.322;10.232;2022-10-01T14:18:15;6.32;;;3.17;;
38089;SDS011;23904;52.322;10.232;2022-10-01T14:23:53;10.55;;;3.42;;
38089;SDS011;23904;52.322;10.232;2022-10-01T14:37:13;6.03;;;3.10;;
38089;SDS011;23904;52.322;10.232;2022-10-01T14:39:42;6.10;;;1.08;;
38089;SDS011;23904;52.322;10.232;2022-10-01T14:42:15;4.07;;;1.17;;
38089;SDS011;23904;52.322;10.232;2022-10-01T14:44:42;5.93;;;1.05;;
38089;SDS011;23904;52.322;10.232;2022-10-01T14:47:17;6.75;;;1.23;;
38089;SDS011;23904;52.322;10.232;2022-10-01T14:49:45;9.88;;;1.17;;
38089;SDS011;23904;52.322;10.232;2022-10-01T14:52:19;6.28;;;1.08;;
38089;SDS011;23904;52.322;10.232;2022-10-01T14:57:40;3.78;;;0.98;;
38089;SDS011;23904;52.322;10.232;2022-10-01T15:00:21;3.53;;;1.25;;
38089;SDS011;23904;52.322;10.232;2022-10-01T15:03:12;1.80;;;0.80;;
38089;SDS011;23904;52.322;10.232;2022-10-01T15:05:42;1.38;;;0.80;;
38089;SDS011;23904;52.322;10.232;2022-10-01T15:08:17;2.05;;;0.73;;
38089;SDS011;23904;52.322;10.232;2022-10-01T15:11:10;2.25;;;0.90;;
38089;SDS011;23904;52.322;10.232;2022-10-01T15:13:44;2.58;;;0.82;;
38089;SDS011;23904;52.322;10.232;2022-10-01T15:16:16;3.88;;;1.10;;
38089;SDS011;23904;52.322;10.232;2022-10-01T15:18:52;4.80;;;1.40;;
38089;SDS011;23904;52.322;10.232;2022-10-01T15:21:26;6.07;;;1.83;;
38089;SDS011;23904;52.322;10.232;2022-10-01T15:24:04;8.50;;;1.30;;
38089;SDS011;23904;52.322;10.232;2022-10-01T15:26:57;6.45;;;0.85;;
38089;SDS011;23904;52.322;10.232;2022-10-01T15:29:23;5.32;;;1.60;;
38089;SDS011;23904;52.322;10.232;2022-10-01T15:31:49;6.80;;;1.58;;
38089;SDS011;23904;52.322;10.232;2022-10-01T15:34:17;4.35;;;1.33;;
38089;SDS011;23904;52.322;10.232;2022-10-01T15:36:45;6.63;;;1.55;;
38089;SDS011;23904;52.322;10.232;2022-10-01T15:39:17;3.00;;;1.20;;
38089;SDS011;23904;52.322;10.232;2022-10-01T15:41:57;4.22;;;1.20;;
38089;SDS011;23904;52.322;10.232;2022-10-01T15:52:32;4.15;;;1.67;;
38089;SDS011;23904;52.322;10.232;2022-10-01T15:55:16;3.90;;;1.40;;
38089;SDS011;23904;52.322;10.232;2022-10-01T15:57:45;4.32;;;1.33;;
38089;SDS011;23904;52.322;10.232;2022-10-01T16:00:20;12.13;;;3.80;;
38089;SDS011;23904;52.322;10.232;2022-10-01T16:02:53;7.05;;;2.33;;
38089;SDS011;23904;52.322;10.232;2022-10-01T16:05:21;6.80;;;1.80;;
38089;SDS011;23904;52.322;10.232;2022-10-01T16:07:53;5.18;;;1.80;;
38089;SDS011;23904;52.322;10.232;2022-10-01T16:18:39;5.95;;;1.10;;
38089;SDS011;23904;52.322;10.232;2022-10-01T16:21:06;7.43;;;1.50;;
38089;SDS011;23904;52.322;10.232;2022-10-01T16:23:43;4.20;;;1.60;;
38089;SDS011;23904;52.322;10.232;2022-10-01T16:26:55;7.07;;;2.85;;
38089;SDS011;23904;52.322;10.232;2022-10-01T16:31:42;4.80;;;1.27;;
38089;SDS011;23904;52.322;10.232;2022-10-01T16:34:10;4.22;;;1.33;;
38089;SDS011;23904;52.322;10.232;2022-10-01T16:36:37;7.03;;;1.70;;
38089;SDS011;23904;52.322;10.232;2022-10-01T16:39:03;4.03;;;1.45;;
38089;SDS011;23904;52.322;10.232;2022-10-01T16:41:30;7.03;;;1.40;;
38089;SDS011;23904;52.322;10.232;2022-10-01T16:44:00;4.28;;;1.70;;
38089;SDS011;23904;52.322;10.232;2022-10-01T16:46:28;5.63;;;1.50;;
38089;SDS011;23904;52.322;10.232;2022-10-01T16:48:54;5.75;;;1.40;;
38089;SDS011;23904;52.322;10.232;2022-10-01T16:51:20;3.65;;;1.70;;
38089;SDS011;23904;52.322;10.232;2022-10-01T16:53:46;4.35;;;1.60;;
38089;SDS011;23904;52.322;10.232;2022-10-01T16:56:13;6.53;;;1.70;;
38089;SDS011;23904;52.322;10.232;2022-10-01T16:58:39;5.50;;;1.95;;
38089;SDS011;23904;52.322;10.232;2022-10-01T17:01:07;4.72;;;1.35;;
38089;SDS011;23904;52.322;10.232;2022-10-01T17:03:37;4.60;;;1.35;;
38089;SDS011;23904;52.322;10.232;2022-10-01T17:06:02;5.55;;;1.60;;
38089;SDS011;23904;52.322;10.232;2022-10-01T17:08:28;5.68;;;1.70;;
38089;SDS011;23904;52.322;10.232;2022-10-01T17:10:55;9.60;;;2.15;;
38089;SDS011;23904;52.322;10.232;2022-10-01T17:13:30;8.65;;;2.15;;
38089;SDS011;23904;52.322;10.232;2022-10-01T17:15:58;6.93;;;2.17;;
38089;SDS011;23904;52.322;10.232;2022-10-01T17:18:24;15.82;;;7.05;;
38089;SDS011;23904;52.322;10.232;2022-10-01T17:20:50;8.13;;;2.13;;
38089;SDS011;23904;52.322;10.232;2022-10-01T17:23:17;5.97;;;2.88;;
38089;SDS011;23904;52.322;10.232;2022-10-01T17:25:46;6.75;;;2.78;;
38089;SDS011;23904;52.322;10.232;2022-10-01T17:28:13;4.88;;;2.20;;
38089;SDS011;23904;52.322;10.232;2022-10-01T17:30:41;8.02;;;2.47;;
38089;SDS011;23904;52.322;10.232;2022-10-01T17:33:10;5.97;;;2.20;;